Time;durP1;ratioP1;P1;durP2;ratioP2;P2;SDS_P1;SDS_P2;PMS_P1;PMS_P2;Temp;Humidity;BMP_temperature;BMP_pressure;BME280_temperature;BME280_humidity;BME280_pressure;Samples;Min_cycle;Max_cycle;Signal;HPM_P1;HPM_P2
2022/08/24 00:01:15;;;;;;;2.17;1.17;;;;;;;28.18;38.23;100882.44;4995213;28;20022;-81
2022/08/24 00:03:42;;;;;;;2.25;0.90;;;;;;;28.07;38.49;100881.88;4996398;28;20034;-82
2022/08/24 00:06:14;;;;;;;4.00;1.13;;;;;;;28.11;38.60;100893.03;4996491;28;20031;-81
2022/08/24 00:08:41;;;;;;;3.20;1.25;;;;;;;27.87;39.09;100893.06;4995122;28;20390;-82
2022/08/24 00:11:08;;;;;;;3.75;1.20;;;;;;;27.95;38.96;100893.72;4994761;28;20038;-81
2022/08/24 00:13:34;;;;;;;3.83;1.35;;;;;;;28.01;38.78;100897.63;4994732;28;20441;-82
2022/08/24 00:16:01;;;;;;;2.58;1.13;;;;;;;28.08;38.66;100889.06;4996141;28;20417;-81
2022/08/24 00:18:26;;;;;;;4.68;1.52;;;;;;;28.15;38.48;100894.56;4994739;28;20027;-82
2022/08/24 00:20:53;;;;;;;5.20;1.40;;;;;;;28.09;38.61;100904.69;4994777;28;20038;-81
2022/08/24 00:23:18;;;;;;;2.30;1.13;;;;;;;28.02;39.06;100902.03;4996054;28;20045;-81
2022/08/24 00:25:44;;;;;;;4.15;1.65;;;;;;;27.96;39.57;100900.91;4995927;28;20064;-81
2022/08/24 00:28:10;;;;;;;2.63;1.48;;;;;;;27.91;40.01;100893.00;4995987;28;20030;-81
2022/08/24 00:30:36;;;;;;;3.22;1.55;;;;;;;27.86;40.16;100888.66;4995839;28;20058;-81
2022/08/24 00:33:02;;;;;;;2.38;1.48;;;;;;;28.12;39.95;100894.66;4995741;28;20022;-81
2022/08/24 00:35:28;;;;;;;3.80;1.60;;;;;;;27.98;40.27;100898.50;4994507;28;20035;-81
2022/08/24 00:37:54;;;;;;;3.25;1.90;;;;;;;27.83;40.91;100895.16;4995679;28;20026;-81
2022/08/24 00:40:24;;;;;;;4.85;1.25;;;;;;;27.58;41.60;100895.56;4993056;28;20038;-81
2022/08/24 00:42:50;;;;;;;3.55;1.55;;;;;;;27.56;41.62;100900.78;4995576;28;20031;-81
2022/08/24 00:45:17;;;;;;;4.95;2.03;;;;;;;27.51;41.70;100898.47;4995564;28;20088;-81
2022/08/24 00:47:48;;;;;;;2.97;1.40;;;;;;;27.42;42.08;100883.38;4995626;28;20037;-81
2022/08/24 00:50:35;;;;;;;3.83;1.67;;;;;;;27.40;42.15;100891.44;4994275;28;20033;-81
2022/08/24 00:53:07;;;;;;;3.85;1.70;;;;;;;27.34;42.20;100889.09;4994198;28;20037;-80
2022/08/24 00:55:57;;;;;;;2.95;1.50;;;;;;;27.23;42.68;100885.69;4994268;28;20034;-81
2022/08/24 00:58:32;;;;;;;;;;;;;;;27.02;43.48;100883.16;4994676;28;20477;-81
2022/08/24 01:01:02;;;;;;;4.18;1.88;;;;;;;27.17;42.92;100890.16;4995375;28;19930;-80
2022/08/24 01:03:29;;;;;;;3.10;1.90;;;;;;;27.00;43.42;100883.56;4993874;28;20069;-81
2022/08/24 01:05:55;;;;;;;8.07;2.50;;;;;;;26.88;43.81;100881.34;4995281;28;20029;-80
2022/08/24 01:08:22;;;;;;;5.43;1.95;;;;;;;26.96;43.69;100888.44;4995207;28;20109;-80
2022/08/24 01:11:03;;;;;;;3.67;1.80;;;;;;;26.92;44.40;100890.50;4995114;28;20042;-80
2022/08/24 01:13:31;;;;;;;2.17;1.63;;;;;;;26.93;44.03;100883.69;4995072;28;20492;-80
2022/08/24 01:16:01;;;;;;;3.15;2.00;;;;;;;26.74;44.39;100879.50;4995093;28;20141;-80
2022/08/24 01:21:20;;;;;;;8.35;2.75;;;;;;;26.57;45.13;100869.34;4995730;28;20049;-80
2022/08/24 01:23:56;;;;;;;3.65;1.90;;;;;;;26.39;45.99;100863.16;4995101;28;20026;-80
2022/08/24 01:26:29;;;;;;;5.28;2.28;;;;;;;26.49;46.18;100868.63;4995189;28;20473;-80
2022/08/24 01:29:01;;;;;;;3.65;2.10;;;;;;;26.40;46.31;100871.16;4993797;28;20038;-80
2022/08/24 01:31:27;;;;;;;7.88;2.95;;;;;;;26.55;45.82;100875.34;4995009;28;20073;-80
2022/08/24 01:33:53;;;;;;;3.55;2.22;;;;;;;26.46;46.22;100879.88;4994823;28;20034;-80
2022/08/24 01:36:34;;;;;;;4.18;2.30;;;;;;;26.25;47.07;100883.69;4994744;28;20129;-80
2022/08/24 01:39:14;;;;;;;3.22;2.20;;;;;;;26.08;47.32;100881.88;4994826;28;20038;-80
2022/08/24 01:41:39;;;;;;;3.88;2.42;;;;;;;26.14;47.28;100885.78;4994690;28;20057;-81
2022/08/24 01:44:05;;;;;;;4.63;2.22;;;;;;;25.49;49.31;100884.78;4993360;28;20489;-80
2022/08/24 01:46:31;;;;;;;5.20;1.75;;;;;;;25.52;48.55;100889.53;4994575;28;20161;-80
2022/08/24 01:48:57;;;;;;;5.05;1.95;;;;;;;25.48;48.06;100897.97;4994617;28;20023;-80
2022/08/24 01:51:27;;;;;;;3.80;1.58;;;;;;;25.28;47.76;100906.09;4993230;28;20481;-79
2022/08/24 01:53:53;;;;;;;;;;;;;;;24.96;48.58;100911.06;4993734;28;20429;-80
2022/08/24 01:56:18;;;;;;;5.07;2.00;;;;;;;24.90;48.45;100919.84;4994449;28;19913;-80
2022/08/24 01:58:46;;;;;;;3.05;1.60;;;;;;;25.06;47.66;100921.41;4993148;28;20022;-80
2022/08/24 02:01:13;;;;;;;6.22;1.90;;;;;;;24.64;49.10;100920.38;4993120;28;20041;-80
2022/08/24 02:03:39;;;;;;;2.88;1.17;;;;;;;24.58;49.05;100922.78;4994163;28;20034;-79
2022/08/24 02:06:05;;;;;;;2.20;1.08;;;;;;;24.90;47.95;100919.84;4994264;28;20018;-80
2022/08/24 02:08:35;;;;;;;2.40;1.27;;;;;;;25.00;47.22;100928.59;4994235;28;20030;-80
2022/08/24 02:11:10;;;;;;;2.15;1.00;;;;;;;24.61;48.08;100924.75;4992683;28;20482;-79
2022/08/24 02:13:38;;;;;;;1.38;0.95;;;;;;;24.71;47.61;100919.53;4994063;28;20030;-79
2022/08/24 02:16:05;;;;;;;1.98;1.05;;;;;;;24.53;47.75;100925.19;4993597;28;20039;-79
2022/08/24 02:18:32;;;;;;;1.35;0.90;;;;;;;24.64;47.67;100928.75;4994035;28;20536;-80
2022/08/24 02:20:58;;;;;;;0.88;0.70;;;;;;;24.75;46.77;100923.91;4994340;28;20033;-79
2022/08/24 02:23:24;;;;;;;2.03;0.88;;;;;;;24.66;47.07;100920.78;4993997;28;20460;-79
2022/08/24 02:25:50;;;;;;;1.58;1.05;;;;;;;24.69;46.93;100922.75;4993799;28;20031;-80
2022/08/24 02:28:16;;;;;;;2.97;0.90;;;;;;;24.81;46.38;100916.72;4992554;28;20022;-79
2022/08/24 02:30:42;;;;;;;1.75;1.20;;;;;;;24.83;46.47;100919.09;4993776;28;20023;-79
2022/08/24 02:33:08;;;;;;;2.83;1.10;;;;;;;24.76;46.40;100916.34;4992618;28;20125;-79
2022/08/24 02:35:34;;;;;;;1.67;0.85;;;;;;;24.72;46.34;100919.16;4992568;28;20122;-79
2022/08/24 02:37:59;;;;;;;2.78;1.13;;;;;;;24.88;45.90;100916.69;4993811;28;20031;-79
2022/08/24 02:40:26;;;;;;;1.52;0.90;;;;;;;24.85;46.14;100909.09;4992538;28;20014;-79
2022/08/24 02:42:52;;;;;;;1.73;0.88;;;;;;;24.92;45.80;100914.66;4993198;28;20057;-80
2022/08/24 02:45:18;;;;;;;2.45;0.90;;;;;;;24.91;45.93;100910.28;4992206;28;20054;-79
2022/08/24 02:47:46;;;;;;;2.63;1.10;;;;;;;24.96;45.89;100911.06;4993722;28;20050;-79
2022/08/24 02:50:13;;;;;;;2.40;0.85;;;;;;;24.99;45.57;100925.00;4993465;28;20054;-79
2022/08/24 02:52:40;;;;;;;1.25;1.00;;;;;;;25.05;45.62;100925.41;4993352;28;20034;-79
2022/08/24 02:55:09;;;;;;;1.15;0.90;;;;;;;25.06;45.38;100927.78;4993580;28;20097;-79
2022/08/24 02:57:35;;;;;;;1.75;0.82;;;;;;;25.07;45.30;100932.19;4993487;28;20027;-80
2022/08/24 03:00:01;;;;;;;3.42;1.00;;;;;;;25.15;45.55;100924.53;4993423;28;20038;-79
2022/08/24 03:02:27;;;;;;;1.67;1.20;;;;;;;25.22;44.88;100929.31;4993397;28;20047;-79
2022/08/24 03:04:53;;;;;;;2.00;0.90;;;;;;;25.17;45.05;100927.75;4993237;28;20041;-79
2022/08/24 03:07:18;;;;;;;1.58;1.00;;;;;;;25.09;45.09;100926.16;4993406;28;20481;-79
2022/08/24 03:09:44;;;;;;;2.30;1.00;;;;;;;25.05;44.97;100923.41;4993173;28;20041;-79
2022/08/24 03:12:10;;;;;;;1.15;0.95;;;;;;;25.02;45.37;100927.00;4993030;28;20085;-79
2022/08/24 03:14:35;;;;;;;3.58;1.52;;;;;;;24.82;45.60;100935.06;4991971;28;20029;-79
2022/08/24 03:17:01;;;;;;;1.77;1.17;;;;;;;24.88;45.42;100936.25;4993255;28;20529;-79
2022/08/24 03:19:27;;;;;;;2.83;1.10;;;;;;;24.97;45.48;100940.59;4993237;28;20022;-82
2022/08/24 03:21:53;;;;;;;3.85;1.30;;;;;;;25.06;45.05;100938.97;4993091;28;20054;-79
2022/08/24 03:24:20;;;;;;;2.65;1.10;;;;;;;25.12;45.33;100939.34;4993212;28;20027;-79
2022/08/24 03:26:45;;;;;;;2.35;1.02;;;;;;;24.95;45.41;100945.81;4993521;28;20481;-79
2022/08/24 03:29:12;;;;;;;2.00;0.93;;;;;;;24.84;45.66;100941.03;4997083;28;20038;-79
2022/08/24 03:31:37;;;;;;;1.83;1.08;;;;;;;24.76;46.16;100938.69;4997229;28;20393;-79
2022/08/24 03:34:03;;;;;;;3.05;1.10;;;;;;;24.68;46.00;100940.72;4996909;28;20030;-80
2022/08/24 03:36:29;;;;;;;3.03;1.48;;;;;;;24.67;46.42;100932.75;4995696;28;20030;-79
2022/08/24 03:38:54;;;;;;;2.65;1.13;;;;;;;24.66;46.36;100937.53;4997025;28;20445;-80
2022/08/24 03:41:20;;;;;;;4.20;1.30;;;;;;;24.74;46.14;100932.72;4995617;28;20027;-80
2022/08/24 03:43:47;;;;;;;2.80;1.30;;;;;;;24.76;46.03;100930.31;4996930;28;20054;-79
2022/08/24 03:46:16;;;;;;;3.13;1.17;;;;;;;24.81;45.90;100932.69;4995605;28;20030;-79
2022/08/24 03:48:43;;;;;;;5.03;1.48;;;;;;;24.73;46.45;100929.13;4995557;28;20088;-79
2022/08/24 03:51:15;;;;;;;2.75;1.48;;;;;;;24.76;46.43;100928.31;4996612;28;20484;-80
2022/08/24 03:53:41;;;;;;;3.72;1.50;;;;;;;24.81;45.87;100921.50;4996642;28;20116;-79
2022/08/24 03:56:08;;;;;;;6.10;1.67;;;;;;;24.88;45.61;100924.28;4996582;28;20105;-79
2022/08/24 03:58:36;;;;;;;4.80;1.60;;;;;;;24.80;46.11;100922.72;4996774;28;20057;-79
2022/08/24 04:01:03;;;;;;;3.00;1.08;;;;;;;24.72;46.24;100912.78;4996710;28;20018;-80
2022/08/24 04:03:28;;;;;;;1.17;0.75;;;;;;;24.68;46.22;100929.53;4996647;28;20121;-79
2022/08/24 04:05:54;;;;;;;4.50;1.17;;;;;;;24.68;46.61;100923.16;4996626;28;20238;-80
2022/08/24 04:08:20;;;;;;;2.95;1.40;;;;;;;24.63;46.51;100927.16;4996677;28;20030;-79
2022/08/24 04:10:47;;;;;;;3.03;1.42;;;;;;;24.62;46.51;100926.34;4996216;28;20046;-78
2022/08/24 04:13:14;;;;;;;5.65;2.05;;;;;;;24.58;46.53;100933.16;4996176;28;20030;-80
2022/08/24 04:15:41;;;;;;;2.00;1.27;;;;;;;24.49;46.60;100944.78;4995041;28;20033;-79
2022/08/24 04:18:08;;;;;;;4.40;1.60;;;;;;;24.49;46.68;100955.16;4996301;28;20022;-79
2022/08/24 04:20:41;;;;;;;5.47;1.60;;;;;;;24.43;47.05;100945.59;4996186;28;20060;-79
2022/08/24 04:23:10;;;;;;;4.60;1.92;;;;;;;24.41;46.86;100942.38;4994966;28;20023;-79
2022/08/24 04:25:44;;;;;;;2.95;1.30;;;;;;;24.37;47.00;100942.41;4994801;28;20117;-79
2022/08/24 04:28:10;;;;;;;4.05;1.45;;;;;;;24.29;47.04;100947.16;4996285;28;20440;-80
2022/08/24 04:30:45;;;;;;;4.03;1.55;;;;;;;24.28;47.05;100953.97;4995998;28;20484;-79
2022/08/24 04:33:12;;;;;;;4.28;1.63;;;;;;;24.17;46.92;100947.56;4996003;28;20030;-79
2022/08/24 04:35:45;;;;;;;1.30;1.10;;;;;;;24.15;47.11;100952.78;4995847;28;20034;-80
2022/08/24 04:38:11;;;;;;;2.92;1.52;;;;;;;24.10;47.27;100955.97;4993969;28;20027;-79
2022/08/24 04:40:41;;;;;;;5.97;1.38;;;;;;;23.95;47.65;100955.16;4995968;28;20034;-79
2022/08/24 04:43:07;;;;;;;;;;;;;;;23.85;47.90;100950.41;4996173;28;20049;-79
2022/08/24 04:45:38;;;;;;;5.85;2.30;;;;;;;23.89;47.40;100950.41;4995680;28;20369;-79
2022/08/24 04:48:03;;;;;;;3.03;1.50;;;;;;;23.89;47.69;100967.16;4996170;28;20019;-79
2022/08/24 04:50:29;;;;;;;2.50;1.33;;;;;;;23.85;47.68;100964.34;4993900;28;20030;-79
2022/08/24 04:52:55;;;;;;;3.53;1.42;;;;;;;23.86;47.45;100965.13;4994593;28;20034;-79
2022/08/24 04:55:21;;;;;;;3.05;1.30;;;;;;;23.72;47.75;100966.72;4995569;28;20023;-79
2022/08/24 04:57:47;;;;;;;3.63;1.48;;;;;;;23.52;48.38;100974.66;4995459;28;20030;-80
2022/08/24 05:00:13;;;;;;;6.13;1.50;;;;;;;23.29;49.20;100970.63;4995553;28;20031;-79
2022/08/24 05:02:38;;;;;;;2.63;1.58;;;;;;;23.47;48.51;100972.25;4995565;28;20397;-79
2022/08/24 05:05:09;;;;;;;5.25;1.83;;;;;;;23.47;48.78;100988.19;4995196;28;20397;-78
2022/08/24 05:07:35;;;;;;;3.35;1.58;;;;;;;23.08;49.72;100991.66;4995449;28;20022;-79
2022/08/24 05:10:02;;;;;;;3.72;1.33;;;;;;;23.26;49.16;100989.72;4995150;28;20417;-79
2022/08/24 05:12:28;;;;;;;5.63;1.73;;;;;;;23.34;48.72;100995.31;4994921;28;20077;-78
2022/08/24 05:14:54;;;;;;;2.80;1.15;;;;;;;23.29;48.78;100996.50;4995062;28;20058;-79
2022/08/24 05:17:20;;;;;;;4.95;2.00;;;;;;;23.19;48.99;100995.25;4994957;28;20039;-78
2022/08/24 05:19:45;;;;;;;2.65;1.50;;;;;;;23.18;49.32;101002.03;4993683;28;20034;-79
2022/08/24 05:22:11;;;;;;;4.28;1.58;;;;;;;23.31;48.79;101012.84;4994895;28;20109;-79
2022/08/24 05:24:37;;;;;;;2.30;1.40;;;;;;;23.25;49.11;101018.78;4994897;28;20026;-79
2022/08/24 05:27:02;;;;;;;2.40;1.40;;;;;;;23.38;48.47;101022.03;4994774;28;20034;-79
2022/08/24 05:29:32;;;;;;;4.88;1.38;;;;;;;23.44;48.11;101025.22;4994618;28;20031;-79
2022/08/24 05:31:58;;;;;;;3.60;1.40;;;;;;;23.18;49.01;101023.53;4994691;28;20185;-79
2022/08/24 05:34:24;;;;;;;3.45;1.75;;;;;;;23.10;49.15;101039.41;4994653;28;20038;-79
2022/08/24 05:36:49;;;;;;;3.55;1.80;;;;;;;23.04;49.30;101035.41;4994693;28;20030;-79
2022/08/24 05:39:15;;;;;;;8.20;2.17;;;;;;;23.16;49.04;101046.22;4994547;28;20096;-79
2022/08/24 05:41:42;;;;;;;3.92;1.60;;;;;;;23.19;48.76;101041.84;4994424;28;20089;-78
2022/08/24 05:44:08;;;;;;;4.43;1.50;;;;;;;23.11;49.14;101041.00;4994433;28;20049;-78
2022/08/24 05:46:34;;;;;;;7.22;2.13;;;;;;;23.19;48.99;101039.06;4994497;28;20030;-79
2022/08/24 05:49:00;;;;;;;3.22;1.63;;;;;;;23.28;48.38;101044.28;4994155;28;20030;-79
2022/08/24 05:51:26;;;;;;;4.43;2.08;;;;;;;23.22;48.75;101052.22;4993736;28;20030;-77
2022/08/24 05:53:52;;;;;;;5.90;1.98;;;;;;;23.28;48.95;101053.47;5009311;28;20128;-77
2022/08/24 05:56:18;;;;;;;3.40;1.50;;;;;;;23.26;48.62;101064.97;4993943;28;20065;-79
2022/08/24 05:58:45;;;;;;;3.42;1.85;;;;;;;23.33;48.47;101063.41;4994118;28;20033;-77
2022/08/24 06:01:16;;;;;;;2.17;1.30;;;;;;;23.26;48.70;101062.19;5009142;28;20049;-78
2022/08/24 06:03:43;;;;;;;2.28;1.33;;;;;;;23.15;49.34;101064.16;4992931;28;20143;-77
2022/08/24 06:06:09;;;;;;;4.45;1.65;;;;;;;23.20;49.27;101066.56;4994043;28;20026;-78
2022/08/24 06:08:40;;;;;;;8.30;1.77;;;;;;;23.23;49.19;101071.34;4993997;28;20026;-77
2022/08/24 06:11:05;;;;;;;2.95;1.73;;;;;;;23.25;49.18;101085.69;4993257;28;20521;-78
2022/08/24 06:13:32;;;;;;;3.08;1.50;;;;;;;23.34;48.92;101095.69;4991781;28;20060;-77
2022/08/24 06:16:10;;;;;;;3.63;1.95;;;;;;;23.28;49.40;101098.06;4993951;28;20101;-80
2022/08/24 06:18:37;;;;;;;7.90;1.88;;;;;;;23.35;49.38;101100.06;4992229;28;20436;-78
2022/08/24 06:21:08;;;;;;;3.33;1.90;;;;;;;23.41;49.27;101101.28;5009005;28;20588;-79
2022/08/24 06:23:35;;;;;;;5.93;2.97;;;;;;;23.37;49.21;101089.34;4992575;28;20030;-79
2022/08/24 06:28:45;;;;;;;3.58;2.05;;;;;;;23.55;48.71;101098.56;4994028;28;20516;-79
2022/08/24 06:31:11;;;;;;;3.05;1.58;;;;;;;23.33;49.41;101099.66;4992266;28;20046;-78
2022/08/24 06:33:37;;;;;;;7.35;2.10;;;;;;;23.37;49.32;101092.91;4992096;28;20041;-79
2022/08/24 06:36:03;;;;;;;4.28;2.05;;;;;;;23.52;48.99;101104.94;4992382;28;20461;-81
2022/08/24 06:38:29;;;;;;;7.22;1.55;;;;;;;23.53;49.06;101117.69;4992274;28;20081;-80
2022/08/24 06:40:55;;;;;;;4.05;1.88;;;;;;;23.59;48.79;101124.47;4993425;28;20053;-82
2022/08/24 06:43:23;;;;;;;7.82;2.58;;;;;;;23.72;48.46;101124.94;4993303;28;20462;-79
2022/08/24 06:45:50;;;;;;;5.07;1.85;;;;;;;23.73;49.03;101124.56;4992162;28;20054;-79
2022/08/24 06:48:16;;;;;;;5.25;2.00;;;;;;;23.74;48.73;101117.78;4993359;28;20022;-79
2022/08/24 06:50:42;;;;;;;5.13;1.75;;;;;;;23.64;49.37;101120.53;4992170;28;20026;-78
2022/08/24 06:53:08;;;;;;;3.13;2.03;;;;;;;23.77;48.90;101122.56;4993455;28;20042;-79
2022/08/24 06:55:34;;;;;;;4.90;1.30;;;;;;;23.69;49.30;101136.91;4993231;28;20026;-79
2022/08/24 06:58:01;;;;;;;4.40;1.52;;;;;;;23.82;48.94;101129.78;4993398;28;20031;-79
2022/08/24 07:00:27;;;;;;;4.15;1.67;;;;;;;23.84;48.77;101126.59;4993013;28;20492;-80
2022/08/24 07:02:53;;;;;;;4.40;2.08;;;;;;;24.01;48.32;101131.41;4993163;28;20030;-79
2022/08/24 07:05:19;;;;;;;8.30;1.83;;;;;;;24.03;48.12;101134.59;4993184;28;20113;-79
2022/08/24 07:07:44;;;;;;;5.13;2.08;;;;;;;24.16;48.50;101141.41;4993369;28;20031;-79
2022/08/24 07:10:10;;;;;;;4.82;2.33;;;;;;;24.21;48.37;101152.19;4993083;28;20054;-79
2022/08/24 07:12:36;;;;;;;5.55;2.13;;;;;;;24.41;47.84;101151.84;4992910;28;20046;-79
2022/08/24 07:15:05;;;;;;;4.95;1.65;;;;;;;24.43;47.53;101147.47;4993054;28;20457;-79
2022/08/24 07:17:31;;;;;;;8.77;1.73;;;;;;;24.39;47.16;101155.03;4993085;28;20034;-79
2022/08/24 07:19:57;;;;;;;6.63;1.73;;;;;;;24.28;47.37;101152.19;4993009;28;20030;-80
2022/08/24 07:22:22;;;;;;;6.18;3.00;;;;;;;24.45;47.27;101145.06;4993226;28;20026;-79
2022/08/24 07:24:48;;;;;;;20.20;3.92;;;;;;;24.35;47.36;101149.44;4993036;28;20022;-80
2022/08/24 07:27:13;;;;;;;7.65;2.03;;;;;;;24.44;47.40;101165.81;4992980;28;20492;-79
2022/08/24 07:29:40;;;;;;;11.38;2.45;;;;;;;24.54;47.16;101158.63;4991789;28;20116;-79
2022/08/24 07:32:06;;;;;;;5.68;1.52;;;;;;;24.61;46.87;101158.63;4991566;28;20026;-79
2022/08/24 07:34:32;;;;;;;3.25;1.50;;;;;;;24.65;46.77;101167.84;4992910;28;20504;-79
2022/08/24 07:37:00;;;;;;;9.75;2.10;;;;;;;24.72;46.49;101164.25;4993087;28;20030;-78
2022/08/24 07:39:26;;;;;;;5.95;1.55;;;;;;;24.53;46.86;101177.38;4992893;28;20025;-79
2022/08/24 07:41:52;;;;;;;2.55;1.55;;;;;;;24.69;46.86;101190.97;4993119;28;20092;-77
2022/08/24 07:44:18;;;;;;;3.75;1.42;;;;;;;24.73;46.86;101179.81;4992936;28;20034;-77
2022/08/24 07:46:44;;;;;;;4.82;1.38;;;;;;;24.80;46.44;101182.59;4991688;28;20022;-81
2022/08/24 07:49:11;;;;;;;4.07;1.95;;;;;;;24.67;46.99;101178.59;5007417;28;20035;-79
2022/08/24 07:51:37;;;;;;;23.10;3.42;;;;;;;24.89;46.42;101169.81;4991874;28;20085;-79
2022/08/24 07:54:04;;;;;;;4.97;1.77;;;;;;;24.99;46.28;101173.00;4992703;28;20035;-80
2022/08/24 07:56:30;;;;;;;12.82;2.97;;;;;;;25.01;46.46;101170.59;4992704;28;20559;-79
2022/08/24 07:58:56;;;;;;;3.20;1.40;;;;;;;25.04;46.41;101175.41;4991499;28;20030;-80
2022/08/24 08:01:22;;;;;;;3.00;1.20;;;;;;;25.06;46.23;101184.19;4991486;28;20551;-79
2022/08/24 08:03:49;;;;;;;5.15;1.50;;;;;;;25.20;45.84;101191.78;4992675;28;20476;-79
2022/08/24 08:06:16;;;;;;;25.55;3.80;;;;;;;25.11;46.14;101192.19;4992654;28;20033;-80
2022/08/24 08:08:42;;;;;;;4.75;1.95;;;;;;;25.24;45.94;101189.75;4991132;28;20027;-79
2022/08/24 08:11:10;;;;;;;5.97;1.85;;;;;;;25.40;45.56;101193.72;4992624;28;20049;-81
2022/08/24 08:13:36;;;;;;;31.58;3.72;;;;;;;25.48;45.88;101200.09;4993012;28;20026;-81
2022/08/24 08:16:03;;;;;;;5.07;1.55;;;;;;;25.44;45.89;101214.06;4995833;28;20026;-83
2022/08/24 08:18:30;;;;;;;4.90;1.80;;;;;;;25.34;45.99;101216.91;4996235;28;20084;-80
2022/08/24 08:20:55;;;;;;;70.55;8.63;;;;;;;25.36;45.52;101211.72;4996295;28;20124;-78
2022/08/24 08:26:11;;;;;;;6.95;2.03;;;;;;;25.65;45.18;101209.63;4996244;28;20089;-79
2022/08/24 08:28:36;;;;;;;5.55;1.88;;;;;;;25.77;45.16;101206.44;4995793;28;20034;-82
2022/08/24 08:31:04;;;;;;;5.13;1.92;;;;;;;25.94;44.57;101205.56;4994609;28;20508;-77
2022/08/24 08:33:30;;;;;;;22.50;3.35;;;;;;;25.95;44.71;101212.75;4994662;28;20595;-79
2022/08/24 08:36:17;;;;;;;3.35;1.70;;;;;;;25.64;45.65;101213.63;4994735;28;20038;-79
2022/08/24 08:38:43;;;;;;;2.72;1.58;;;;;;;26.02;44.51;101211.91;4974917;28;20482;-80
2022/08/24 08:41:16;;;;;;;8.45;2.00;;;;;;;26.10;44.23;101226.69;4984775;28;20045;-81
2022/08/24 08:44:04;;;;;;;3.45;1.63;;;;;;;26.10;44.35;101240.69;4994674;28;20022;-82
2022/08/24 08:47:00;;;;;;;8.40;1.70;;;;;;;26.13;44.13;101240.66;4979449;28;20027;-82
2022/08/24 08:49:38;;;;;;;3.15;1.70;;;;;;;26.02;44.08;101234.31;4998788;28;20038;-82
2022/08/24 08:52:25;;;;;;;3.25;1.40;;;;;;;26.08;43.92;101235.50;5002217;28;20025;-80
2022/08/24 08:55:04;;;;;;;4.15;1.10;;;;;;;25.86;44.35;101240.38;5003555;28;20024;-81
2022/08/24 08:57:54;;;;;;;8.90;1.92;;;;;;;26.19;43.62;101232.63;5003813;28;20108;-80
2022/08/24 09:00:26;;;;;;;3.33;1.17;;;;;;;26.45;42.94;101228.47;5008472;28;20058;-79
2022/08/24 09:03:20;;;;;;;7.45;2.03;;;;;;;26.50;42.61;101237.25;5003147;28;20109;-80
2022/08/24 09:05:56;;;;;;;9.02;1.70;;;;;;;26.57;42.15;101239.22;5000627;28;20045;-83
2022/08/24 09:08:34;;;;;;;7.28;1.55;;;;;;;26.70;42.30;101245.94;4996111;28;20037;-85
2022/08/24 09:11:37;;;;;;;5.63;1.35;;;;;;;26.63;42.22;101250.81;5008073;28;20065;-90
2022/08/24 09:14:48;;;;;;;26.50;3.83;;;;;;;26.46;42.32;101249.72;5008393;28;20116;-85
2022/08/24 09:17:32;;;;;;;7.22;1.35;;;;;;;26.59;42.41;101245.22;5008976;28;20040;-79
2022/08/24 09:20:22;;;;;;;5.68;1.60;;;;;;;26.58;42.32;101254.03;4998387;28;20051;-81
2022/08/24 09:23:03;;;;;;;5.00;1.40;;;;;;;26.81;42.05;101254.25;4994131;28;20041;-84
2022/08/24 09:25:47;;;;;;;3.80;1.27;;;;;;;26.77;41.62;101261.91;4993547;28;20030;-82
2022/08/24 09:28:51;;;;;;;12.70;1.92;;;;;;;26.85;41.41;101257.84;4994488;28;20393;-88
2022/08/24 09:31:20;;;;;;;6.70;1.55;;;;;;;26.95;41.35;101248.53;4984207;28;20045;-83
2022/08/24 09:34:14;;;;;;;3.90;1.33;;;;;;;26.85;40.93;101246.63;4992929;28;20180;-82
2022/08/24 09:37:01;;;;;;;5.32;1.77;;;;;;;26.95;40.72;101248.53;4993045;28;20033;-84
2022/08/24 09:39:45;;;;;;;4.53;1.25;;;;;;;27.13;40.41;101254.06;4995537;28;20042;-81
2022/08/24 09:42:56;;;;;;;7.20;1.77;;;;;;;26.96;40.20;101257.75;4983015;28;20112;-87
2022/08/24 09:45:46;;;;;;;4.45;1.45;;;;;;;26.97;39.84;101248.91;4984547;28;20034;-82
2022/08/24 09:48:35;;;;;;;3.35;1.10;;;;;;;27.03;39.94;101241.66;4993283;28;20027;-87
2022/08/24 09:51:03;;;;;;;4.68;1.73;;;;;;;27.28;39.40;101240.66;4994959;28;20080;-85
2022/08/24 09:53:32;;;;;;;5.53;1.40;;;;;;;27.50;39.22;101241.25;4991830;28;20038;-83
2022/08/24 09:56:03;;;;;;;5.25;1.30;;;;;;;27.57;39.28;101252.41;4994031;28;20042;-85
2022/08/24 09:58:34;;;;;;;6.50;1.20;;;;;;;27.50;38.82;101261.69;4994365;28;20030;-86
2022/08/24 10:01:19;;;;;;;3.60;1.85;;;;;;;27.68;38.64;101266.34;4993510;28;20046;-85
2022/08/24 10:03:51;;;;;;;4.55;1.50;;;;;;;27.74;38.34;101259.06;4992871;28;20022;-83
2022/08/24 10:06:45;;;;;;;6.47;1.25;;;;;;;27.37;38.12;101269.84;4992453;28;20051;-86
2022/08/24 10:09:58;;;;;;;6.78;1.65;;;;;;;27.46;38.06;101269.34;4990949;28;20023;-84
2022/08/24 10:12:29;;;;;;;4.20;1.10;;;;;;;27.50;38.10;101272.91;4999826;28;20484;-83
2022/08/24 10:15:19;;;;;;;6.70;1.55;;;;;;;27.08;38.04;101272.09;4997002;28;20082;-80
2022/08/24 10:18:19;;;;;;;5.18;1.55;;;;;;;27.38;37.67;101273.44;5007602;28;20088;-83
2022/08/24 10:20:59;;;;;;;;;;;;;;;27.33;37.55;101268.28;5014663;28;20038;-93
2022/08/24 10:23:52;;;;;;;5.07;1.40;;;;;;;27.13;38.00;101261.66;5013066;28;19913;-79
2022/08/24 10:26:30;;;;;;;4.35;1.50;;;;;;;27.27;37.92;101262.31;5002436;28;20074;-83
2022/08/24 10:29:04;;;;;;;5.82;1.40;;;;;;;27.40;37.78;101262.59;5013182;28;20022;-82
2022/08/24 10:31:40;;;;;;;7.68;2.28;;;;;;;27.37;37.94;101261.44;5011788;28;20038;-84
2022/08/24 10:34:24;;;;;;;5.38;1.27;;;;;;;27.57;37.46;101263.63;4992366;28;20497;-80
2022/08/24 10:37:11;;;;;;;3.63;1.38;;;;;;;27.68;37.24;101263.56;4979109;28;20034;-87
2022/08/24 10:39:54;;;;;;;9.02;1.75;;;;;;;27.74;37.01;101257.06;4973224;28;20088;-83
2022/08/24 10:45:40;;;;;;;4.45;1.65;;;;;;;28.01;36.47;101248.69;4992646;28;20113;-81
2022/08/24 10:48:30;;;;;;;2.50;1.25;;;;;;;27.92;36.29;101262.47;4991329;28;20054;-81
2022/08/24 10:51:34;;;;;;;4.93;1.30;;;;;;;28.15;36.04;101259.75;4993004;28;20030;-79
2022/08/24 10:54:01;;;;;;;5.68;1.65;;;;;;;28.25;36.14;101263.63;4991515;28;20121;-81
2022/08/24 10:56:39;;;;;;;5.00;1.20;;;;;;;28.06;35.99;101262.28;4991462;28;20038;-81
2022/08/24 10:59:32;;;;;;;3.72;1.58;;;;;;;27.87;35.23;101269.31;5005815;28;20088;-81
2022/08/24 11:02:05;;;;;;;3.47;1.20;;;;;;;28.28;35.56;101274.03;5002247;28;20034;-89
2022/08/24 11:04:34;;;;;;;16.73;2.58;;;;;;;28.35;35.27;101273.19;4992644;28;20026;-81
2022/08/24 11:07:20;;;;;;;2.40;1.50;;;;;;;28.29;34.77;101272.81;4990517;28;20038;-84
2022/08/24 11:09:57;;;;;;;6.03;1.92;;;;;;;28.20;34.92;101272.53;4991288;28;20030;-83
2022/08/24 11:12:28;;;;;;;2.78;1.40;;;;;;;28.48;34.57;101271.38;4990789;28;20043;-83
2022/08/24 11:15:01;;;;;;;5.97;1.70;;;;;;;28.68;34.29;101277.91;4991187;28;20034;-83
2022/08/24 11:17:29;;;;;;;3.42;1.15;;;;;;;28.68;34.56;101277.91;4992627;28;20066;-84
2022/08/24 11:19:58;;;;;;;1.65;1.17;;;;;;;28.78;34.36;101283.78;4991422;28;20469;-77
2022/08/24 11:22:35;;;;;;;4.68;1.83;;;;;;;28.35;34.04;101276.00;4990468;28;20483;-90
2022/08/24 11:25:06;;;;;;;3.22;2.03;;;;;;;28.46;34.09;101280.22;4993726;28;20024;-87
2022/08/24 11:27:38;;;;;;;5.40;1.70;;;;;;;28.41;34.23;101288.34;4993303;28;20389;-89
2022/08/24 11:30:10;;;;;;;4.10;1.65;;;;;;;28.44;34.50;101287.50;4993371;28;20030;-91
2022/08/24 11:32:43;;;;;;;4.90;1.67;;;;;;;28.67;34.34;101284.75;5003263;28;20039;-94
2022/08/24 11:35:23;;;;;;;3.05;1.60;;;;;;;28.90;34.17;101291.63;4993968;28;20062;-94
2022/08/24 11:37:53;;;;;;;3.60;1.30;;;;;;;28.74;34.31;101290.28;4994172;28;20046;-90
2022/08/24 11:40:21;;;;;;;4.55;1.50;;;;;;;28.64;33.76;101290.41;4992901;28;20023;-90
2022/08/24 11:43:18;;;;;;;5.73;1.47;;;;;;;28.45;34.76;101277.84;4994193;28;20058;-93
2022/08/24 11:46:02;;;;;;;7.57;1.83;;;;;;;28.80;34.15;101284.97;4991176;28;20470;-78
2022/08/24 11:48:44;;;;;;;2.17;1.17;;;;;;;28.82;33.05;101288.16;4994740;28;20050;-81
2022/08/24 11:51:26;;;;;;;3.38;1.42;;;;;;;29.23;33.16;101282.25;4994699;28;20651;-80
2022/08/24 11:54:10;;;;;;;3.08;1.30;;;;;;;29.24;32.55;101283.06;4994868;28;20144;-90
2022/08/24 11:56:58;;;;;;;6.53;1.85;;;;;;;29.35;32.04;101285.69;5011676;28;20050;-81